Details From YSWG - Wagga Wagga
To YGTH - Griffith
Flight Number -
Tags decoded
Created
Modified
Stats Distance 88 nm / 164 km
Max Altitude 0 ft / 0 m
Waypoints 3
Social Downloads 1
Likes 0
Share

Download

Looking for another format? Having issues loading an existing format? Contact us
Advertisement - Login to hide

Notes

Requested: YSWG WG W235 BORLI/N0250F120 YGTH Unmatched points: BORLI/N0250F120

Route

YSWG WG YGTH

ID Type Via Altitude (ft/m) Position (lat/lon) Dist (leg/tot) Name
O YSWG APT - 0 / 0 -35.16490 / 147.46800 - / 0 nm Wagga Wagga
WG NDB - 0 / 0 -35.16310 / 147.45600 0 / 0 nm WAGGA WAGGA
O YGTH APT - 0 / 0 -34.25150 / 146.06500 87 / 88 nm Griffith

Altitude Profile

Advertisement - Login to hide

YSWG

Details ICAO YSWG (WGA)
Name Wagga Wagga
Region Australia
Timezone Australia/Sydney (UTC+11.0)
Stats Elevation 724 ft / 221 m (AMSL)
Location -35.164900° 147.468000°
Runways 2
Magnetic Variation 11.710° E

METAR

YSWG 270900Z AUTO 06017KT 9999 // NCD 24/14 Q1011

Decode

TAF

Not found

Departure Runways

ID Width Length Bearing (true/mag) Surface Threshold Overrun Markings Lighting
05 148 ft / 45 m 5,799 ft / 1,768 m 61.99° / 50.28° ASPHALT 0 ft / 0 m 125 ft / 38 m APP CENTERLINE EDGE THRESHOLD
12 59 ft / 18 m 2,934 ft / 894 m 125.36° / 113.65° GRASS 0 ft / 0 m 0 ft / 0 m NONE
23 148 ft / 45 m 5,799 ft / 1,768 m 241.98° / 230.27° ASPHALT 0 ft / 0 m 121 ft / 37 m APP CENTERLINE EDGE THRESHOLD
30 59 ft / 18 m 2,934 ft / 894 m 305.35° / 293.64° GRASS 0 ft / 0 m 0 ft / 0 m NONE

YGTH

Details ICAO YGTH (GFF)
Name Griffith
Region Australia
Timezone Australia/Sydney (UTC+11.0)
Stats Elevation 439 ft / 134 m (AMSL)
Location -34.251500° 146.065000°
Runways 2
Magnetic Variation 10.836° E

METAR

YGTH 270921Z AUTO 10017KT 100V170 9999 // NCD 30/16 Q1009

Decode

TAF

Not found

Destination Runways

ID Width Length Bearing (true/mag) Surface Threshold Overrun Markings Lighting
06 98 ft / 30 m 4,925 ft / 1,501 m 65.70° / 54.87° ASPHALT 0 ft / 0 m 0 ft / 0 m APP EDGE THRESHOLD
18 299 ft / 91 m 2,363 ft / 720 m 8.20° / 357.37° DIRT 0 ft / 0 m 0 ft / 0 m NONE
24 98 ft / 30 m 4,925 ft / 1,501 m 245.70° / 234.86° ASPHALT 0 ft / 0 m 0 ft / 0 m APP EDGE THRESHOLD
36 299 ft / 91 m 2,363 ft / 720 m 188.20° / 177.36° DIRT 0 ft / 0 m 0 ft / 0 m NONE

Popular Alternatives